Time;durP1;ratioP1;P1;durP2;ratioP2;P2;SDS_P1;SDS_P2;PMS_P1;PMS_P2;Temp;Humidity;BMP_temperature;BMP_pressure;BME280_temperature;BME280_humidity;BME280_pressure;Samples;Min_cycle;Max_cycle;Signal;HPM_P1;HPM_P2
2023/05/17 00:00:21;;;;;;;;;;;15.40;95.80;;;;;;5035161;28;20390;-77
2023/05/17 00:02:47;;;;;;;;;;;15.40;95.70;;;;;;5037005;28;19925;-77
2023/05/17 00:05:13;;;;;;;;;;;15.30;95.70;;;;;;5029366;28;20540;-77
2023/05/17 00:07:39;;;;;;;;;;;15.30;95.90;;;;;;5030490;28;19943;-77
2023/05/17 00:10:04;;;;;;;;;;;15.20;96.10;;;;;;5030011;28;20303;-77
2023/05/17 00:12:30;;;;;;;;;;;15.20;96.20;;;;;;5024692;28;19960;-77
2023/05/17 00:14:55;;;;;;;;;;;15.10;96.40;;;;;;5028367;28;20370;-77
2023/05/17 00:17:21;;;;;;;;;;;15.10;96.30;;;;;;5029463;28;19911;-77
2023/05/17 00:19:46;;;;;;;;;;;15.10;96.80;;;;;;5030378;28;20428;-76
2023/05/17 00:22:12;;;;;;;;;;;15.00;97.00;;;;;;5027258;28;19967;-77
2023/05/17 00:24:37;;;;;;;;;;;15.00;97.40;;;;;;5029948;28;19940;-77
2023/05/17 00:27:03;;;;;;;;;;;14.90;97.00;;;;;;5030476;28;20007;-76
2023/05/17 00:29:29;;;;;;;;;;;14.90;96.50;;;;;;5030817;28;20618;-77
2023/05/17 00:31:54;;;;;;;;;;;14.90;96.50;;;;;;5030221;28;19913;-77
2023/05/17 00:34:20;;;;;;;;;;;14.80;97.50;;;;;;5030775;28;19919;-76
2023/05/17 00:36:45;;;;;;;;;;;14.80;97.70;;;;;;5033039;28;19913;-76
2023/05/17 00:39:11;;;;;;;;;;;14.80;97.70;;;;;;5031320;28;19919;-77
2023/05/17 00:41:37;;;;;;;;;;;14.80;97.80;;;;;;5030729;28;19937;-77
2023/05/17 00:44:02;;;;;;;;;;;14.80;97.80;;;;;;5028320;28;20000;-77
2023/05/17 00:46:28;;;;;;;;;;;14.70;97.70;;;;;;5035503;28;20001;-76
2023/05/17 00:48:54;;;;;;;;;;;14.50;98.50;;;;;;5037110;28;19994;-77
2023/05/17 00:51:20;;;;;;;;;;;14.50;97.60;;;;;;5033609;28;20357;-77
2023/05/17 00:53:46;;;;;;;;;;;14.50;97.80;;;;;;5028409;28;19948;-77
2023/05/17 00:56:12;;;;;;;;;;;14.40;98.30;;;;;;5028825;28;19932;-76
2023/05/17 00:58:39;;;;;;;;;;;14.30;98.50;;;;;;5031239;28;19909;-77
2023/05/17 01:01:05;;;;;;;;;;;14.10;98.50;;;;;;5029893;28;19909;-77
2023/05/17 01:03:31;;;;;;;;;;;14.00;98.50;;;;;;5033908;28;19921;-77
2023/05/17 01:05:56;;;;;;;;;;;14.00;98.50;;;;;;5029940;28;19967;-77
2023/05/17 01:08:22;;;;;;;;;;;13.90;98.50;;;;;;5030866;28;20349;-77
2023/05/17 01:10:57;;;;;;;;;;;13.90;98.50;;;;;;5028982;28;20361;-77
2023/05/17 01:13:39;;;;;;;;;;;13.70;98.50;;;;;;5027239;28;19948;-77
2023/05/17 01:16:12;;;;;;;;;;;13.60;98.50;;;;;;5028492;28;19967;-77
2023/05/17 01:18:47;;;;;;;;;;;13.70;98.50;;;;;;5025541;28;19932;-77
2023/05/17 01:21:27;;;;;;;;;;;13.80;98.50;;;;;;5030525;28;19912;-77
2023/05/17 01:24:08;;;;;;;;;;;13.80;98.50;;;;;;5029252;28;19917;-78
2023/05/17 01:26:40;;;;;;;;;;;13.90;98.50;;;;;;5029213;28;19995;-78
2023/05/17 01:29:08;;;;;;;;;;;13.90;98.50;;;;;;5027555;28;20398;-77
2023/05/17 01:31:34;;;;;;;;;;;13.90;98.50;;;;;;5028904;28;19916;-77
2023/05/17 01:34:00;;;;;;;;;;;13.70;98.50;;;;;;5026033;28;19909;-77
2023/05/17 01:36:26;;;;;;;;;;;13.60;98.50;;;;;;5029501;28;20020;-77
2023/05/17 01:38:51;;;;;;;;;;;13.40;98.50;;;;;;5028455;28;20398;-77
2023/05/17 01:41:29;;;;;;;;;;;13.30;98.50;;;;;;5035282;28;19963;-77
2023/05/17 01:44:13;;;;;;;;;;;13.30;98.50;;;;;;5025109;28;19916;-77
2023/05/17 01:46:40;;;;;;;;;;;13.30;98.50;;;;;;5029092;28;20193;-77
2023/05/17 01:49:23;;;;;;;;;;;13.30;98.50;;;;;;5024987;28;19913;-77
2023/05/17 01:51:49;;;;;;;;;;;13.40;98.50;;;;;;5031957;28;19916;-78
2023/05/17 01:54:19;;;;;;;;;;;13.40;98.50;;;;;;5028270;28;19909;-77
2023/05/17 01:56:47;;;;;;;;;;;13.20;98.50;;;;;;5029957;28;19931;-78
2023/05/17 01:59:14;;;;;;;;;;;13.10;98.50;;;;;;5030057;28;19921;-77
2023/05/17 02:01:40;;;;;;;;;;;13.10;98.50;;;;;;5023946;28;19932;-77
2023/05/17 02:04:06;;;;;;;;;;;13.20;98.50;;;;;;5026958;28;19913;-77
2023/05/17 02:06:31;;;;;;;;;;;13.20;98.50;;;;;;5029381;28;19929;-77
2023/05/17 02:08:59;;;;;;;;;;;13.20;98.50;;;;;;5028957;28;19909;-77
2023/05/17 02:11:25;;;;;;;;;;;13.30;98.50;;;;;;5026602;28;20001;-77
2023/05/17 02:13:50;;;;;;;;;;;13.40;98.50;;;;;;5027123;28;19959;-78
2023/05/17 02:16:16;;;;;;;;;;;13.40;98.50;;;;;;5031079;28;19995;-78
2023/05/17 02:18:42;;;;;;;;;;;13.40;98.50;;;;;;5027793;28;19923;-77
2023/05/17 02:21:07;;;;;;;;;;;13.40;98.50;;;;;;5030617;28;20394;-77
2023/05/17 02:23:33;;;;;;;;;;;13.40;98.50;;;;;;5028551;28;19925;-76
2023/05/17 02:25:58;;;;;;;;;;;13.40;98.50;;;;;;5027477;28;20500;-77
2023/05/17 02:28:24;;;;;;;;;;;13.30;98.50;;;;;;5026269;28;19916;-77
2023/05/17 02:30:49;;;;;;;;;;;13.30;98.50;;;;;;5030357;28;19959;-77
2023/05/17 02:33:15;;;;;;;;;;;13.30;98.50;;;;;;5027653;28;19916;-77
2023/05/17 02:35:40;;;;;;;;;;;13.30;98.50;;;;;;5029282;28;19948;-78
2023/05/17 02:38:06;;;;;;;;;;;13.30;98.50;;;;;;5024606;28;20541;-77
2023/05/17 02:40:31;;;;;;;;;;;13.30;98.50;;;;;;5026855;28;19916;-78
2023/05/17 02:42:57;;;;;;;;;;;13.30;98.40;;;;;;5027190;28;19975;-78
2023/05/17 02:45:22;;;;;;;;;;;13.20;98.30;;;;;;5027554;28;20139;-77
2023/05/17 02:47:48;;;;;;;;;;;13.20;98.40;;;;;;5028801;28;20310;-77
2023/05/17 02:50:14;;;;;;;;;;;13.20;98.10;;;;;;5029942;28;19909;-77
2023/05/17 02:52:39;;;;;;;;;;;13.10;98.50;;;;;;5029906;28;20283;-77
2023/05/17 02:55:05;;;;;;;;;;;13.10;98.30;;;;;;5029100;28;19909;-77
2023/05/17 02:57:30;;;;;;;;;;;13.10;98.50;;;;;;5029922;28;20413;-76
2023/05/17 02:59:56;;;;;;;;;;;13.10;98.50;;;;;;5032543;28;19940;-76
2023/05/17 03:02:21;;;;;;;;;;;13.10;98.50;;;;;;5031621;28;20444;-76
2023/05/17 03:04:47;;;;;;;;;;;13.10;98.50;;;;;;5032451;28;19932;-76
2023/05/17 03:07:12;;;;;;;;;;;13.10;98.50;;;;;;5036973;28;20141;-76
2023/05/17 03:09:38;;;;;;;;;;;13.10;98.50;;;;;;5032525;28;19909;-76
2023/05/17 03:12:04;;;;;;;;;;;13.10;98.50;;;;;;5035309;28;19913;-76
2023/05/17 03:14:30;;;;;;;;;;;13.10;98.50;;;;;;5031381;28;19912;-77
2023/05/17 03:16:55;;;;;;;;;;;13.10;98.50;;;;;;5035797;28;19919;-77
2023/05/17 03:19:21;;;;;;;;;;;13.00;98.50;;;;;;5033490;28;20409;-77
2023/05/17 03:21:46;;;;;;;;;;;13.10;98.50;;;;;;5034769;28;19917;-77
2023/05/17 03:24:12;;;;;;;;;;;13.00;98.50;;;;;;5029759;28;19992;-77
2023/05/17 03:26:37;;;;;;;;;;;12.90;98.50;;;;;;5033875;28;19999;-77
2023/05/17 03:29:04;;;;;;;;;;;12.90;98.50;;;;;;5030528;28;20276;-77
2023/05/17 03:31:30;;;;;;;;;;;12.80;98.50;;;;;;5035366;28;19966;-77
2023/05/17 03:33:55;;;;;;;;;;;12.90;98.50;;;;;;5031437;28;19999;-77
2023/05/17 03:36:21;;;;;;;;;;;12.90;98.50;;;;;;5032202;28;19955;-77
2023/05/17 03:38:46;;;;;;;;;;;12.90;98.50;;;;;;5033684;28;19913;-77
2023/05/17 03:41:12;;;;;;;;;;;12.90;98.50;;;;;;5031078;28;20393;-79
2023/05/17 03:43:37;;;;;;;;;;;12.90;98.50;;;;;;5033956;28;19967;-78
2023/05/17 03:46:03;;;;;;;;;;;12.80;98.50;;;;;;5030660;28;20170;-78
2023/05/17 03:48:28;;;;;;;;;;;12.70;98.50;;;;;;5033383;28;19909;-78
2023/05/17 03:50:54;;;;;;;;;;;12.70;98.50;;;;;;5032832;28;20356;-78
2023/05/17 03:53:20;;;;;;;;;;;12.70;98.50;;;;;;5061362;28;19909;-78
2023/05/17 03:55:45;;;;;;;;;;;12.70;98.50;;;;;;5029280;28;20051;-77
2023/05/17 03:58:11;;;;;;;;;;;12.80;98.50;;;;;;5031094;28;19991;-77
2023/05/17 04:00:36;;;;;;;;;;;12.80;98.50;;;;;;5031287;28;19909;-78
2023/05/17 04:03:02;;;;;;;;;;;12.90;98.50;;;;;;5031658;28;19928;-78
2023/05/17 04:05:28;;;;;;;;;;;12.90;98.50;;;;;;5030549;28;19913;-78
2023/05/17 04:07:53;;;;;;;;;;;13.00;98.50;;;;;;5029369;28;20004;-77
2023/05/17 04:10:19;;;;;;;;;;;13.00;98.50;;;;;;5030119;28;19909;-78
2023/05/17 04:12:44;;;;;;;;;;;13.00;98.50;;;;;;5029622;28;19958;-79
2023/05/17 04:15:10;;;;;;;;;;;13.10;98.50;;;;;;5030477;28;19912;-78
2023/05/17 04:17:35;;;;;;;;;;;13.10;98.50;;;;;;5030085;28;19913;-78
2023/05/17 04:20:02;;;;;;;;;;;13.20;98.50;;;;;;5034036;28;20330;-78
2023/05/17 04:22:28;;;;;;;;;;;13.20;98.50;;;;;;5029074;28;19928;-77
2023/05/17 04:24:53;;;;;;;;;;;13.20;98.50;;;;;;5029747;28;19916;-77
2023/05/17 04:27:19;;;;;;;;;;;13.30;98.50;;;;;;5030696;28;20337;-76
2023/05/17 04:29:45;;;;;;;;;;;13.30;98.50;;;;;;5033167;28;19944;-79
2023/05/17 04:32:10;;;;;;;;;;;13.30;98.50;;;;;;5028004;28;20051;-77
2023/05/17 04:34:36;;;;;;;;;;;13.30;98.50;;;;;;5032307;28;20453;-78
2023/05/17 04:37:02;;;;;;;;;;;13.40;98.50;;;;;;5029949;28;20000;-78
2023/05/17 04:39:28;;;;;;;;;;;13.40;98.50;;;;;;5026530;28;19923;-77
2023/05/17 04:41:53;;;;;;;;;;;13.50;98.50;;;;;;5033292;28;19925;-77
2023/05/17 04:44:19;;;;;;;;;;;13.50;98.50;;;;;;5031285;28;20297;-78
2023/05/17 04:46:44;;;;;;;;;;;13.50;98.50;;;;;;5034753;28;19913;-78
2023/05/17 04:49:10;;;;;;;;;;;13.60;98.50;;;;;;5030288;28;19913;-77
2023/05/17 04:51:35;;;;;;;;;;;13.60;98.50;;;;;;5030177;28;19913;-78
2023/05/17 04:54:05;;;;;;;;;;;13.70;98.50;;;;;;5029250;28;20367;-78
2023/05/17 04:56:32;;;;;;;;;;;13.80;98.50;;;;;;5028922;28;20430;-78
2023/05/17 04:58:57;;;;;;;;;;;13.80;98.50;;;;;;5054067;28;19923;-78
2023/05/17 05:01:23;;;;;;;;;;;13.90;98.50;;;;;;5029196;28;20008;-78
2023/05/17 05:03:49;;;;;;;;;;;14.00;97.60;;;;;;5034969;28;19917;-78
2023/05/17 05:06:15;;;;;;;;;;;14.00;97.50;;;;;;5027014;28;19912;-78
2023/05/17 05:08:40;;;;;;;;;;;14.10;97.30;;;;;;5028517;28;19913;-78
2023/05/17 05:11:06;;;;;;;;;;;14.20;96.80;;;;;;5031386;28;20040;-78
2023/05/17 05:13:32;;;;;;;;;;;14.30;97.10;;;;;;5025087;28;20038;-77
2023/05/17 05:15:57;;;;;;;;;;;14.40;96.70;;;;;;5029430;28;20390;-79
2023/05/17 05:18:23;;;;;;;;;;;14.50;96.50;;;;;;5029285;28;19913;-79
2023/05/17 05:20:48;;;;;;;;;;;14.50;96.60;;;;;;5030478;28;19916;-79
2023/05/17 05:23:14;;;;;;;;;;;14.60;96.50;;;;;;5030038;28;19917;-79
2023/05/17 05:25:39;;;;;;;;;;;14.60;96.30;;;;;;5030058;28;19905;-79
2023/05/17 05:28:05;;;;;;;;;;;14.70;96.40;;;;;;5033121;28;19923;-76
2023/05/17 05:30:33;;;;;;;;;;;14.80;96.20;;;;;;5028881;28;19917;-79
2023/05/17 05:32:59;;;;;;;;;;;14.90;95.70;;;;;;5017899;28;20004;-78
2023/05/17 05:35:28;;;;;;;;;;;14.90;95.90;;;;;;5022935;28;19999;-78
2023/05/17 05:37:54;;;;;;;;;;;15.00;95.20;;;;;;5028461;28;20314;-78
2023/05/17 05:40:20;;;;;;;;;;;15.10;95.30;;;;;;5029268;28;20363;-78
2023/05/17 05:42:46;;;;;;;;;;;15.20;95.10;;;;;;5029758;28;19921;-78
2023/05/17 05:45:11;;;;;;;;;;;15.30;94.30;;;;;;5034908;28;19956;-78
2023/05/17 05:47:37;;;;;;;;;;;15.40;93.60;;;;;;5028516;28;19970;-78
2023/05/17 05:50:03;;;;;;;;;;;15.50;94.10;;;;;;5020498;28;19913;-78
2023/05/17 05:52:29;;;;;;;;;;;15.60;94.10;;;;;;5028903;28;20355;-77
2023/05/17 05:54:54;;;;;;;;;;;15.70;94.60;;;;;;5027255;28;19955;-77
2023/05/17 05:57:20;;;;;;;;;;;15.80;92.30;;;;;;5032614;28;19916;-78
2023/05/17 05:59:46;;;;;;;;;;;15.80;92.60;;;;;;5030780;28;19996;-77
2023/05/17 06:02:11;;;;;;;;;;;15.90;91.40;;;;;;5028374;28;19917;-76
2023/05/17 06:04:37;;;;;;;;;;;16.00;90.20;;;;;;5027942;28;20381;-79
2023/05/17 06:07:03;;;;;;;;;;;16.10;90.20;;;;;;5029003;28;20409;-78
2023/05/17 06:09:28;;;;;;;;;;;16.20;90.00;;;;;;5029729;28;19905;-78
2023/05/17 06:11:54;;;;;;;;;;;16.20;90.80;;;;;;5021315;28;19905;-79
2023/05/17 06:14:19;;;;;;;;;;;16.30;90.90;;;;;;5023859;28;19909;-79
2023/05/17 06:16:47;;;;;;;;;;;16.50;90.40;;;;;;5023918;28;19912;-78
2023/05/17 06:19:13;;;;;;;;;;;16.60;89.90;;;;;;5028749;28;19935;-78
2023/05/17 06:21:38;;;;;;;;;;;16.70;89.70;;;;;;5030283;28;19909;-77
2023/05/17 06:24:04;;;;;;;;;;;16.80;88.90;;;;;;5028891;28;19912;-78
2023/05/17 06:26:30;;;;;;;;;;;16.90;89.40;;;;;;5026988;28;19905;-79
2023/05/17 06:28:55;;;;;;;;;;;17.00;88.30;;;;;;5032520;28;19966;-78
2023/05/17 06:31:21;;;;;;;;;;;17.10;89.00;;;;;;5030149;28;19908;-78
2023/05/17 06:33:46;;;;;;;;;;;17.20;87.80;;;;;;5031773;28;19963;-80
2023/05/17 06:36:12;;;;;;;;;;;17.30;87.00;;;;;;5034323;28;19909;-78
2023/05/17 06:38:37;;;;;;;;;;;17.40;87.00;;;;;;5027993;28;19913;-76
2023/05/17 06:41:03;;;;;;;;;;;17.40;86.60;;;;;;5032389;28;19912;-77
2023/05/17 06:43:28;;;;;;;;;;;17.40;86.30;;;;;;5035530;28;19917;-76
2023/05/17 06:45:54;;;;;;;;;;;17.50;86.00;;;;;;5035410;28;20061;-77
2023/05/17 06:48:19;;;;;;;;;;;17.50;86.00;;;;;;5032664;28;19909;-78
2023/05/17 06:50:45;;;;;;;;;;;17.50;86.50;;;;;;5033581;28;19935;-77
2023/05/17 06:53:11;;;;;;;;;;;17.50;85.80;;;;;;5026790;28;20337;-78
2023/05/17 06:55:36;;;;;;;;;;;17.50;86.20;;;;;;5032367;28;19974;-77
2023/05/17 06:58:02;;;;;;;;;;;17.50;86.60;;;;;;5032936;28;19913;-79
2023/05/17 07:00:28;;;;;;;;;;;17.60;86.80;;;;;;5031624;28;19909;-80
2023/05/17 07:02:53;;;;;;;;;;;17.60;86.60;;;;;;5031900;28;19924;-80
2023/05/17 07:05:20;;;;;;;;;;;17.70;87.00;;;;;;5031232;28;19912;-80
2023/05/17 07:07:45;;;;;;;;;;;17.80;86.70;;;;;;5032950;28;20393;-80
2023/05/17 07:10:11;;;;;;;;;;;17.90;86.80;;;;;;5029608;28;19913;-79
2023/05/17 07:12:36;;;;;;;;;;;17.90;86.40;;;;;;5032416;28;19909;-80
2023/05/17 07:15:02;;;;;;;;;;;17.90;85.80;;;;;;5032497;28;19932;-80
2023/05/17 07:17:27;;;;;;;;;;;17.90;86.30;;;;;;5031926;28;19920;-80
2023/05/17 07:19:53;;;;;;;;;;;18.00;85.90;;;;;;5036442;28;20313;-79
2023/05/17 07:22:19;;;;;;;;;;;18.00;86.10;;;;;;5032517;28;19920;-80
2023/05/17 07:24:44;;;;;;;;;;;18.10;85.40;;;;;;5034151;28;19917;-79
2023/05/17 07:27:10;;;;;;;;;;;18.10;84.90;;;;;;5032780;28;19911;-80
2023/05/17 07:29:36;;;;;;;;;;;18.10;85.00;;;;;;5030993;28;19909;-79
2023/05/17 07:32:02;;;;;;;;;;;18.20;85.50;;;;;;5030804;28;20007;-80
2023/05/17 07:34:27;;;;;;;;;;;18.20;85.70;;;;;;5032164;28;19970;-80
2023/05/17 07:36:53;;;;;;;;;;;18.30;85.10;;;;;;5027279;28;19916;-80
2023/05/17 07:39:18;;;;;;;;;;;18.40;84.90;;;;;;5031445;28;19920;-81
2023/05/17 07:41:44;;;;;;;;;;;18.50;85.00;;;;;;5031861;28;19916;-80
2023/05/17 07:44:09;;;;;;;;;;;18.70;84.60;;;;;;5030135;28;19909;-79
2023/05/17 07:46:35;;;;;;;;;;;18.80;84.20;;;;;;5030995;28;19948;-80
2023/05/17 07:49:01;;;;;;;;;;;18.80;83.50;;;;;;5030737;28;19920;-80
2023/05/17 07:51:26;;;;;;;;;;;18.90;83.70;;;;;;5029556;28;19913;-80
2023/05/17 07:53:52;;;;;;;;;;;18.90;83.10;;;;;;5028839;28;20401;-80
2023/05/17 07:56:17;;;;;;;;;;;19.00;82.80;;;;;;5028948;28;19909;-79
2023/05/17 07:58:43;;;;;;;;;;;19.00;83.60;;;;;;5036287;28;20398;-79
2023/05/17 08:01:09;;;;;;;;;;;19.10;83.70;;;;;;5029014;28;19912;-79
2023/05/17 08:03:35;;;;;;;;;;;19.30;82.60;;;;;;5031588;28;20283;-78
2023/05/17 08:06:00;;;;;;;;;;;19.40;82.20;;;;;;5028057;28;20009;-78
2023/05/17 08:08:26;;;;;;;;;;;19.60;82.60;;;;;;5030596;28;19913;-79
2023/05/17 08:10:51;;;;;;;;;;;19.80;82.30;;;;;;5028969;28;19967;-78
2023/05/17 08:13:17;;;;;;;;;;;19.90;81.20;;;;;;5028228;28;19944;-79
2023/05/17 08:15:42;;;;;;;;;;;20.00;80.90;;;;;;5030283;28;19948;-78
2023/05/17 08:18:08;;;;;;;;;;;20.00;80.90;;;;;;5031814;28;19995;-78
2023/05/17 08:20:33;;;;;;;;;;;20.10;80.90;;;;;;5030302;28;20024;-79
2023/05/17 08:22:59;;;;;;;;;;;20.20;81.00;;;;;;5028892;28;20449;-78
2023/05/17 08:25:24;;;;;;;;;;;20.30;80.40;;;;;;5030653;28;20268;-80
2023/05/17 08:27:50;;;;;;;;;;;20.30;79.80;;;;;;5028423;28;19912;-79
2023/05/17 08:30:15;;;;;;;;;;;20.40;80.30;;;;;;5028720;28;19941;-81
2023/05/17 08:32:41;;;;;;;;;;;20.40;79.30;;;;;;5032922;28;19915;-79
2023/05/17 08:35:07;;;;;;;;;;;20.40;80.00;;;;;;5028131;28;19913;-78
2023/05/17 08:37:32;;;;;;;;;;;20.50;79.60;;;;;;5026113;28;19947;-78
2023/05/17 08:39:58;;;;;;;;;;;20.60;79.60;;;;;;5026948;28;19913;-77
2023/05/17 08:42:26;;;;;;;;;;;20.60;80.20;;;;;;5027661;28;20003;-78
2023/05/17 08:44:52;;;;;;;;;;;20.80;79.30;;;;;;5034507;28;20386;-78
2023/05/17 08:47:24;;;;;;;;;;;20.90;79.00;;;;;;5029761;28;19912;-78
2023/05/17 08:49:54;;;;;;;;;;;21.10;78.70;;;;;;5026946;28;19912;-79
2023/05/17 08:52:20;;;;;;;;;;;21.10;76.40;;;;;;5028993;28;19916;-78
2023/05/17 08:54:46;;;;;;;;;;;21.10;77.20;;;;;;5027119;28;19912;-77
2023/05/17 08:57:13;;;;;;;;;;;21.10;77.90;;;;;;5027840;28;19991;-78
2023/05/17 08:59:38;;;;;;;;;;;21.10;78.30;;;;;;5028188;28;20371;-77
2023/05/17 09:02:05;;;;;;;;;;;21.10;77.80;;;;;;5035698;28;19917;-77
2023/05/17 09:04:30;;;;;;;;;;;21.20;77.60;;;;;;5031706;28;19924;-77
2023/05/17 09:06:56;;;;;;;;;;;21.10;76.80;;;;;;5030550;28;19909;-78
2023/05/17 09:09:22;;;;;;;;;;;21.00;77.30;;;;;;5029265;28;20481;-78
2023/05/17 09:11:47;;;;;;;;;;;21.00;78.40;;;;;;5030607;28;20010;-77
2023/05/17 09:14:14;;;;;;;;;;;21.00;77.90;;;;;;5030158;28;20314;-77
2023/05/17 09:16:39;;;;;;;;;;;21.10;78.50;;;;;;5030394;28;20391;-77
2023/05/17 09:19:06;;;;;;;;;;;21.20;78.00;;;;;;5024406;28;19924;-77
2023/05/17 09:21:32;;;;;;;;;;;21.20;77.80;;;;;;5029767;28;19916;-76
2023/05/17 09:24:00;;;;;;;;;;;21.30;77.40;;;;;;5028829;28;19986;-75
2023/05/17 09:26:36;;;;;;;;;;;21.40;77.20;;;;;;5015411;28;20664;-76
2023/05/17 09:29:01;;;;;;;;;;;21.50;77.10;;;;;;5029083;28;19909;-75
2023/05/17 09:31:27;;;;;;;;;;;21.70;77.20;;;;;;5020407;28;19915;-76
2023/05/17 09:33:52;;;;;;;;;;;21.80;77.00;;;;;;5034451;28;19931;-77
2023/05/17 09:36:19;;;;;;;;;;;22.00;76.80;;;;;;5028393;28;19944;-77
2023/05/17 09:38:59;;;;;;;;;;;22.10;76.00;;;;;;5028924;28;20402;-77
2023/05/17 09:41:25;;;;;;;;;;;22.20;75.50;;;;;;5029465;28;19905;-77
2023/05/17 09:43:52;;;;;;;;;;;22.30;75.50;;;;;;5027276;28;19921;-75
2023/05/17 09:46:20;;;;;;;;;;;22.30;75.40;;;;;;5027743;28;19913;-76
2023/05/17 09:48:51;;;;;;;;;;;22.20;75.60;;;;;;5025985;28;19931;-77
2023/05/17 09:51:17;;;;;;;;;;;22.30;75.40;;;;;;5027463;28;19912;-77
2023/05/17 09:53:42;;;;;;;;;;;22.20;75.40;;;;;;5027854;28;20370;-77
2023/05/17 09:56:08;;;;;;;;;;;22.10;75.60;;;;;;5026309;28;20334;-77
2023/05/17 09:58:37;;;;;;;;;;;22.10;75.70;;;;;;5027827;28;19911;-79
2023/05/17 10:01:07;;;;;;;;;;;22.00;75.60;;;;;;5027003;28;19913;-79
2023/05/17 10:03:34;;;;;;;;;;;22.00;76.00;;;;;;5024327;28;19920;-75
2023/05/17 10:06:11;;;;;;;;;;;21.90;75.80;;;;;;5023365;28;19905;-76
2023/05/17 10:08:37;;;;;;;;;;;21.90;75.80;;;;;;5019554;28;19909;-76
2023/05/17 10:11:07;;;;;;;;;;;21.70;76.10;;;;;;5027663;28;19913;-76
2023/05/17 10:13:34;;;;;;;;;;;21.60;75.10;;;;;;5027927;28;20509;-77
2023/05/17 10:16:00;;;;;;;;;;;21.20;74.80;;;;;;5019192;28;20491;-75
2023/05/17 10:18:26;;;;;;;;;;;21.00;76.10;;;;;;5025885;28;19905;-77
2023/05/17 10:20:52;;;;;;;;;;;20.90;76.10;;;;;;5026406;28;20375;-76
2023/05/17 10:23:19;;;;;;;;;;;20.80;76.70;;;;;;5028119;28;20008;-78
2023/05/17 10:25:45;;;;;;;;;;;20.70;76.80;;;;;;5025203;28;19966;-77
2023/05/17 10:28:11;;;;;;;;;;;20.50;77.60;;;;;;5021798;28;19909;-78
2023/05/17 10:30:37;;;;;;;;;;;20.30;78.30;;;;;;5027526;28;19913;-77
2023/05/17 10:33:03;;;;;;;;;;;20.10;78.60;;;;;;5030971;28;19940;-77
2023/05/17 10:35:29;;;;;;;;;;;20.00;78.60;;;;;;5028944;28;19905;-78
2023/05/17 10:37:54;;;;;;;;;;;19.80;78.40;;;;;;5028880;28;19920;-78
2023/05/17 10:40:21;;;;;;;;;;;19.80;79.80;;;;;;5029633;28;19994;-77
2023/05/17 10:42:51;;;;;;;;;;;19.70;79.30;;;;;;5029628;28;20000;-78
2023/05/17 10:45:21;;;;;;;;;;;19.70;79.50;;;;;;5026725;28;19912;-78
2023/05/17 10:47:47;;;;;;;;;;;19.70;80.00;;;;;;5028526;28;19945;-78
2023/05/17 10:50:13;;;;;;;;;;;19.70;79.80;;;;;;5028625;28;19916;-79
2023/05/17 10:52:50;;;;;;;;;;;19.70;79.40;;;;;;5029377;28;19905;-78
2023/05/17 10:55:20;;;;;;;;;;;19.60;79.40;;;;;;5029704;28;19951;-78
2023/05/17 10:58:07;;;;;;;;;;;19.60;80.60;;;;;;5028729;28;19909;-78
2023/05/17 11:00:37;;;;;;;;;;;19.70;80.60;;;;;;5029369;28;19909;-78
2023/05/17 11:03:12;;;;;;;;;;;19.70;80.10;;;;;;5020489;28;19917;-79
2023/05/17 11:05:40;;;;;;;;;;;19.70;80.00;;;;;;5028174;28;20374;-78
2023/05/17 11:08:15;;;;;;;;;;;19.70;80.90;;;;;;5029276;28;19913;-78
2023/05/17 11:11:00;;;;;;;;;;;19.80;80.80;;;;;;5029279;28;20054;-78
2023/05/17 11:13:28;;;;;;;;;;;19.90;80.80;;;;;;5028543;28;19909;-78
2023/05/17 11:16:03;;;;;;;;;;;20.00;80.50;;;;;;5029695;28;19909;-79
2023/05/17 11:19:05;;;;;;;;;;;20.10;79.90;;;;;;5031621;28;19980;-79
2023/05/17 11:21:30;;;;;;;;;;;20.20;79.90;;;;;;5033569;28;19913;-80
2023/05/17 11:24:00;;;;;;;;;;;20.20;79.60;;;;;;5035355;28;19913;-78
2023/05/17 11:26:28;;;;;;;;;;;20.30;79.70;;;;;;5035820;28;20507;-79
2023/05/17 11:29:01;;;;;;;;;;;20.40;80.30;;;;;;5031740;28;19909;-80
2023/05/17 11:31:33;;;;;;;;;;;20.50;79.50;;;;;;5035717;28;19949;-79
2023/05/17 11:33:59;;;;;;;;;;;20.50;79.10;;;;;;5036400;28;19905;-79
2023/05/17 11:36:25;;;;;;;;;;;20.50;79.40;;;;;;5037558;28;20043;-79
2023/05/17 11:39:10;;;;;;;;;;;20.60;79.40;;;;;;5037403;28;19967;-79
2023/05/17 11:41:44;;;;;;;;;;;20.70;79.60;;;;;;5035283;28;19916;-80
2023/05/17 11:44:09;;;;;;;;;;;20.70;79.60;;;;;;5031669;28;19978;-79
2023/05/17 11:46:36;;;;;;;;;;;20.80;79.60;;;;;;5031767;28;19996;-80
2023/05/17 11:49:04;;;;;;;;;;;20.70;78.80;;;;;;5033590;28;19912;-80
2023/05/17 11:51:30;;;;;;;;;;;20.70;78.80;;;;;;5034433;28;20359;-79
2023/05/17 11:53:56;;;;;;;;;;;20.70;79.60;;;;;;5026787;28;20004;-79
2023/05/17 11:56:22;;;;;;;;;;;20.70;79.50;;;;;;5034914;28;19905;-79
2023/05/17 11:58:54;;;;;;;;;;;20.70;78.70;;;;;;5036789;28;19905;-79
2023/05/17 12:01:19;;;;;;;;;;;20.70;78.60;;;;;;5035668;28;20382;-79
2023/05/17 12:03:46;;;;;;;;;;;20.70;78.10;;;;;;5037432;28;19917;-79
2023/05/17 12:06:13;;;;;;;;;;;20.70;77.90;;;;;;5033579;28;19928;-78
2023/05/17 12:08:42;;;;;;;;;;;20.60;78.10;;;;;;5029843;28;19992;-79
2023/05/17 12:11:10;;;;;;;;;;;20.40;78.60;;;;;;5035543;28;19909;-79
2023/05/17 12:13:35;;;;;;;;;;;20.30;79.10;;;;;;5036018;28;20447;-79
2023/05/17 12:16:08;;;;;;;;;;;20.20;79.50;;;;;;5035211;28;19905;-79
2023/05/17 12:18:38;;;;;;;;;;;20.10;79.40;;;;;;5036206;28;19905;-79
2023/05/17 12:21:04;;;;;;;;;;;20.10;79.40;;;;;;5036059;28;20422;-79
2023/05/17 12:23:34;;;;;;;;;;;20.10;79.00;;;;;;5027851;28;20350;-79
2023/05/17 12:26:03;;;;;;;;;;;20.00;79.70;;;;;;5036447;28;19932;-80
2023/05/17 12:28:29;;;;;;;;;;;20.10;79.70;;;;;;5034959;28;19912;-78
2023/05/17 12:31:01;;;;;;;;;;;20.10;79.10;;;;;;5031564;28;19905;-80
2023/05/17 12:33:28;;;;;;;;;;;20.20;79.40;;;;;;5034983;28;19912;-79
2023/05/17 12:35:54;;;;;;;;;;;20.30;78.50;;;;;;5034690;28;19991;-80
2023/05/17 12:38:19;;;;;;;;;;;20.20;77.70;;;;;;5034853;28;19979;-80
2023/05/17 12:40:45;;;;;;;;;;;20.10;78.40;;;;;;5029158;28;19971;-79
2023/05/17 12:43:11;;;;;;;;;;;20.10;78.40;;;;;;5032015;28;19921;-77
2023/05/17 12:45:39;;;;;;;;;;;20.00;78.70;;;;;;5037724;28;19967;-78
2023/05/17 12:48:05;;;;;;;;;;;20.00;78.50;;;;;;5030987;28;19915;-78
2023/05/17 12:50:31;;;;;;;;;;;20.00;78.90;;;;;;5030506;28;19909;-77
2023/05/17 12:52:57;;;;;;;;;;;19.90;79.60;;;;;;5029837;28;19905;-79
2023/05/17 12:55:23;;;;;;;;;;;19.90;79.80;;;;;;5033071;28;19912;-79
2023/05/17 12:57:52;;;;;;;;;;;20.00;79.70;;;;;;5029245;28;19916;-79
2023/05/17 13:00:21;;;;;;;;;;;20.00;79.80;;;;;;5029431;28;20859;-79
2023/05/17 13:02:47;;;;;;;;;;;20.10;80.10;;;;;;5025726;28;19923;-79
2023/05/17 13:05:17;;;;;;;;;;;20.20;79.60;;;;;;5028871;28;19913;-78
2023/05/17 13:07:43;;;;;;;;;;;20.20;79.00;;;;;;5030227;28;19917;-80
2023/05/17 13:10:18;;;;;;;;;;;20.30;79.20;;;;;;5031158;28;20005;-81
2023/05/17 13:12:54;;;;;;;;;;;20.50;79.20;;;;;;5028549;28;19912;-80
2023/05/17 13:15:19;;;;;;;;;;;20.60;79.90;;;;;;5029800;28;20007;-79
2023/05/17 13:17:48;;;;;;;;;;;20.70;79.30;;;;;;5026876;28;20020;-79
2023/05/17 13:20:14;;;;;;;;;;;20.60;78.00;;;;;;5029591;28;20362;-80
2023/05/17 13:22:46;;;;;;;;;;;20.60;77.90;;;;;;5024422;28;19995;-79
2023/05/17 13:25:12;;;;;;;;;;;20.50;78.50;;;;;;5026010;28;19940;-80
2023/05/17 13:27:37;;;;;;;;;;;20.40;78.30;;;;;;5030182;28;19971;-80
2023/05/17 13:30:03;;;;;;;;;;;20.20;78.10;;;;;;5029011;28;19909;-82
2023/05/17 13:32:29;;;;;;;;;;;20.00;78.50;;;;;;5030497;28;19913;-83
2023/05/17 13:34:55;;;;;;;;;;;19.90;78.90;;;;;;5030953;28;19909;-82
2023/05/17 13:37:21;;;;;;;;;;;19.80;79.30;;;;;;5030646;28;19917;-83
2023/05/17 13:39:46;;;;;;;;;;;19.70;79.40;;;;;;5034146;28;19908;-83
2023/05/17 13:42:12;;;;;;;;;;;19.60;80.00;;;;;;5029247;28;19928;-81
2023/05/17 13:44:37;;;;;;;;;;;19.60;80.40;;;;;;5031774;28;20314;-83
2023/05/17 13:47:03;;;;;;;;;;;19.50;79.70;;;;;;5028987;28;19920;-83
2023/05/17 13:49:29;;;;;;;;;;;19.50;80.00;;;;;;5031347;28;20552;-84
2023/05/17 13:51:55;;;;;;;;;;;19.50;79.80;;;;;;5033288;28;19912;-79
2023/05/17 13:54:21;;;;;;;;;;;19.40;79.60;;;;;;5027406;28;19913;-82
2023/05/17 13:56:46;;;;;;;;;;;19.30;78.20;;;;;;5030266;28;19924;-82
2023/05/17 13:59:12;;;;;;;;;;;19.30;77.40;;;;;;5029307;28;19909;-79
2023/05/17 14:01:39;;;;;;;;;;;19.20;77.30;;;;;;5027188;28;20023;-77
2023/05/17 14:04:04;;;;;;;;;;;19.20;77.80;;;;;;5027680;28;19970;-78
2023/05/17 14:06:30;;;;;;;;;;;19.20;77.80;;;;;;5028982;28;20449;-77
2023/05/17 14:08:58;;;;;;;;;;;19.10;77.70;;;;;;5028178;28;20323;-79
2023/05/17 14:11:23;;;;;;;;;;;19.10;77.70;;;;;;5030095;28;19913;-79
2023/05/17 14:13:49;;;;;;;;;;;19.10;77.60;;;;;;5029979;28;19932;-79